| time (UTC) | temp F | wind direction | speed knots | gust knots | rain 1hr in | rain 24hr in | rain mn in | humidity % | barometer mb |
| 20260510065325 | 59 | 94 | 0.0 | 0.0 | 0.00 | 0.00 | 0.00 | 88 | 1012.3 |
| 20260510064323 | 60 | 79 | 0.0 | 0.0 | 0.00 | 0.00 | 0.00 | 88 | 1012.3 |
| 20260510063322 | 60 | 99 | 0.0 | 0.0 | 0.00 | 0.00 | 0.00 | 88 | 1012.3 |
| 20260510062321 | 60 | 99 | 0.0 | 0.0 | 0.00 | 0.00 | 0.00 | 88 | 1012.3 |
| 20260510061320 | 60 | 105 | 0.0 | 0.0 | 0.00 | 0.00 | 0.00 | 87 | 1012.4 |
| 20260510060319 | 60 | 109 | 0.0 | 0.0 | 0.00 | 0.00 | 0.00 | 87 | 1012.3 |
| 20260510055318 | 60 | 109 | 0.0 | 0.0 | 0.00 | 0.00 | 0.00 | 87 | 1012.3 |
| 20260510054317 | 60 | 86 | 0.0 | 0.9 | 0.00 | 0.00 | 0.00 | 87 | 1012.3 |
| 20260510053316 | 61 | 86 | 0.0 | 0.0 | 0.00 | 0.00 | 0.00 | 86 | 1012.4 |
| 20260510052315 | 61 | 86 | 0.0 | 0.0 | 0.00 | 0.00 | 0.00 | 86 | 1012.4 |
| 20260510050313 | 61 | 111 | 0.0 | 0.0 | 0.00 | 0.00 | 0.00 | 86 | 1012.4 |
| 20260510044311 | 62 | 116 | 0.0 | 0.0 | 0.00 | 0.00 | 0.00 | 85 | 1012.2 |
| 20260510043310 | 62 | 116 | 0.0 | 0.0 | 0.00 | 0.00 | 0.00 | 84 | 1012.2 |
| 20260510042309 | 62 | 123 | 0.0 | 0.0 | 0.00 | 0.00 | 0.00 | 84 | 1012.1 |
| 20260510041308 | 63 | 114 | 0.0 | 0.9 | 0.00 | 0.00 | 0.00 | 83 | 1012.0 |
| 20260510040307 | 63 | 85 | 0.0 | 0.9 | 0.00 | 0.00 | 0.00 | 82 | 1012.0 |
| 20260510035306 | 63 | 119 | 0.0 | 0.0 | 0.00 | 0.00 | 0.00 | 82 | 1011.7 |
| 20260510032305 | 65 | 130 | 0.0 | 0.9 | 0.00 | 0.00 | 0.00 | 79 | 1011.5 |
| 20260510031302 | 65 | 127 | 0.0 | 1.7 | 0.00 | 0.00 | 0.00 | 77 | 1011.4 |
| 20260510030301 | 66 | 147 | 0.0 | 1.7 | 0.00 | 0.00 | 0.00 | 76 | 1011.2 |
| 20260510025300 | 67 | 117 | 0.0 | 2.6 | 0.00 | 0.00 | 0.00 | 75 | 1011.2 |
| 20260510024258 | 67 | 118 | 0.0 | 3.5 | 0.00 | 0.00 | 0.00 | 74 | 1011.2 |
| 20260510023257 | 68 | 116 | 0.0 | 3.5 | 0.00 | 0.00 | 0.00 | 73 | 1011.0 |
| 20260510022257 | 69 | 101 | 0.9 | 2.6 | 0.00 | 0.00 | 0.00 | 71 | 1011.0 |
| 20260510021255 | 69 | 70 | 0.0 | 2.6 | 0.00 | 0.00 | 0.00 | 70 | 1010.8 |
| 20260510020255 | 70 | 47 | 1.7 | 4.3 | 0.00 | 0.00 | 0.00 | 69 | 1010.8 |
| 20260510015253 | 71 | 82 | 0.0 | 4.3 | 0.00 | 0.00 | 0.00 | 67 | 1010.8 |
| 20260510014252 | 72 | 98 | 0.0 | 3.5 | 0.00 | 0.00 | 0.00 | 66 | 1010.7 |
| 20260510012251 | 73 | 117 | 0.0 | 4.3 | 0.00 | 0.00 | 0.00 | 64 | 1010.6 |
| 20260510011249 | 74 | 120 | 0.0 | 2.6 | 0.00 | 0.00 | 0.00 | 62 | 1010.6 |
| 20260510005247 | 76 | 65 | 0.0 | 5.2 | 0.00 | 0.00 | 0.00 | 58 | 1010.5 |
| 20260510004246 | 77 | 46 | 0.0 | 5.2 | 0.00 | 0.00 | 0.00 | 56 | 1010.5 |
| 20260510003245 | 78 | 181 | 0.0 | 6.1 | 0.00 | 0.00 | 0.00 | 55 | 1010.5 |
| 20260510002244 | 79 | 155 | 0.0 | 5.2 | 0.00 | 0.00 | 0.00 | 54 | 1010.4 |
| 20260510001243 | 80 | 139 | 0.0 | 7.0 | 0.00 | 0.00 | 0.00 | 53 | 1010.5 |
| 20260510000242 | 80 | 89 | 0.9 | 5.2 | 0.00 | 0.00 | 0.00 | 52 | 1010.5 |
| 20260509235241 | 80 | 159 | 0.0 | 5.2 | 0.00 | 0.00 | 0.00 | 51 | 1010.5 |
| 20260509234240 | 81 | 139 | 1.7 | 5.2 | 0.00 | 0.00 | 0.00 | 50 | 1010.5 |
| 20260509233239 | 81 | 126 | 0.0 | 5.2 | 0.00 | 0.00 | 0.00 | 50 | 1010.5 |
| 20260509232238 | 82 | 95 | 0.9 | 4.3 | 0.00 | 0.00 | 0.00 | 49 | 1010.6 |
| 20260509230236 | 82 | 204 | 0.0 | 4.3 | 0.00 | 0.00 | 0.00 | 50 | 1010.7 |
| 20260509225235 | 81 | 142 | 0.0 | 7.0 | 0.00 | 0.00 | 0.00 | 51 | 1010.6 |
| 20260509224234 | 81 | 69 | 1.7 | 6.1 | 0.00 | 0.00 | 0.00 | 51 | 1010.8 |
| 20260509223233 | 82 | 162 | 0.9 | 6.1 | 0.00 | 0.00 | 0.00 | 51 | 1010.9 |
| 20260509221231 | 81 | 110 | 2.6 | 5.2 | 0.00 | 0.00 | 0.00 | 51 | 1011.2 |
| 20260509220230 | 83 | 107 | 0.0 | 2.6 | 0.00 | 0.00 | 0.00 | 51 | 1011.2 |
| 20260509215229 | 82 | 116 | 0.0 | 4.3 | 0.00 | 0.00 | 0.00 | 52 | 1011.3 |
| 20260509214228 | 82 | 159 | 0.0 | 4.3 | 0.00 | 0.00 | 0.00 | 52 | 1011.4 |
| 20260509212226 | 82 | 123 | 0.0 | 3.5 | 0.00 | 0.00 | 0.00 | 53 | 1011.6 |
| 20260509211225 | 82 | 212 | 0.0 | 1.7 | 0.00 | 0.00 | 0.00 | 52 | 1011.7 |
| 20260509210224 | 82 | 232 | 0.0 | 7.0 | 0.00 | 0.00 | 0.00 | 52 | 1011.6 |
| 20260509205223 | 82 | 117 | 0.0 | 3.5 | 0.00 | 0.00 | 0.00 | 52 | 1011.7 |
| 20260509203221 | 81 | 137 | 0.0 | 4.3 | 0.00 | 0.00 | 0.00 | 52 | 1011.8 |
| 20260509202219 | 81 | 217 | 0.0 | 5.2 | 0.00 | 0.00 | 0.00 | 54 | 1011.9 |
| 20260509201218 | 81 | 131 | 0.0 | 4.3 | 0.00 | 0.00 | 0.00 | 53 | 1011.9 |
| 20260509200217 | 81 | 207 | 0.0 | 1.7 | 0.00 | 0.00 | 0.00 | 53 | 1011.9 |
| 20260509195216 | 81 | 82 | 0.0 | 3.5 | 0.00 | 0.00 | 0.00 | 53 | 1012.1 |
| 20260509194216 | 81 | 110 | 0.0 | 3.5 | 0.00 | 0.00 | 0.00 | 54 | 1012.2 |
| 20260509193215 | 80 | 73 | 0.0 | 3.5 | 0.00 | 0.00 | 0.00 | 55 | 1012.3 |
| 20260509192214 | 79 | 175 | 0.0 | 4.3 | 0.00 | 0.00 | 0.00 | 56 | 1012.4 |
| 20260509191212 | 79 | 108 | 0.0 | 1.7 | 0.00 | 0.00 | 0.00 | 56 | 1012.5 |
| 20260509190211 | 79 | 231 | 0.0 | 0.0 | 0.00 | 0.00 | 0.00 | 57 | 1012.6 |
| 20260509185210 | 79 | 281 | 0.0 | 0.0 | 0.00 | 0.00 | 0.00 | 57 | 1012.8 |
| 20260509184209 | 79 | 62 | 0.0 | 0.0 | 0.00 | 0.00 | 0.00 | 57 | 1012.7 |
| 20260509183208 | 78 | 120 | 0.0 | 4.3 | 0.00 | 0.00 | 0.00 | 60 | 1012.8 |
| 20260509182207 | 77 | 219 | 0.0 | 0.0 | 0.00 | 0.00 | 0.00 | 60 | 1012.9 |
| 20260509180205 | 76 | 205 | 0.0 | 0.0 | 0.00 | 0.00 | 0.00 | 62 | 1013.2 |
| 20260509175204 | 76 | 245 | 0.0 | 0.0 | 0.00 | 0.00 | 0.00 | 64 | 1013.2 |
| 20260509174203 | 74 | 71 | 0.0 | 0.0 | 0.00 | 0.00 | 0.00 | 64 | 1013.2 |
| 20260509171200 | 72 | 132 | 0.0 | 0.0 | 0.00 | 0.00 | 0.00 | 69 | 1013.3 |
| 20260509170159 | 72 | 243 | 0.0 | 0.0 | 0.00 | 0.00 | 0.00 | 69 | 1013.3 |
| 20260509164157 | 70 | 115 | 0.0 | 0.0 | 0.00 | 0.00 | 0.00 | 74 | 1013.1 |
| 20260509163156 | 68 | 167 | 0.0 | 0.0 | 0.00 | 0.00 | 0.00 | 76 | 1013.2 |
| 20260509161154 | 65 | 149 | 0.0 | 0.0 | 0.00 | 0.00 | 0.00 | 83 | 1013.3 |
| 20260509160153 | 64 | 148 | 0.0 | 0.0 | 0.00 | 0.00 | 0.00 | 85 | 1013.3 |
| 20260509155152 | 62 | 148 | 0.0 | 0.0 | 0.00 | 0.00 | 0.00 | 86 | 1013.4 |
| 20260509154151 | 62 | 226 | 0.0 | 0.0 | 0.00 | 0.00 | 0.00 | 88 | 1013.5 |
| 20260509152149 | 61 | 110 | 0.0 | 0.0 | 0.00 | 0.00 | 0.00 | 89 | 1013.6 |
| 20260509151148 | 61 | 118 | 0.0 | 0.0 | 0.00 | 0.00 | 0.00 | 89 | 1013.6 |
| 20260509150147 | 60 | 80 | 0.0 | 0.0 | 0.00 | 0.00 | 0.00 | 90 | 1013.5 |
| 20260509145145 | 60 | 113 | 0.0 | 0.0 | 0.00 | 0.00 | 0.00 | 90 | 1013.5 |
| 20260509144145 | 60 | 113 | 0.0 | 0.0 | 0.00 | 0.00 | 0.00 | 90 | 1013.4 |
| 20260509143144 | 60 | 113 | 0.0 | 0.0 | 0.00 | 0.00 | 0.00 | 90 | 1013.3 |
| 20260509142142 | 60 | 113 | 0.0 | 0.0 | 0.00 | 0.00 | 0.00 | 90 | 1013.4 |
| 20260509141142 | 60 | 83 | 0.0 | 0.0 | 0.00 | 0.00 | 0.00 | 91 | 1013.3 |
| 20260509134138 | 59 | 106 | 0.0 | 0.0 | 0.00 | 0.00 | 0.00 | 90 | 1013.2 |
| 20260509132136 | 59 | 106 | 0.0 | 0.0 | 0.00 | 0.00 | 0.00 | 90 | 1013.0 |
| 20260509131135 | 59 | 106 | 0.0 | 0.0 | 0.00 | 0.00 | 0.00 | 90 | 1013.0 |
| 20260509124132 | 59 | 106 | 0.0 | 0.0 | 0.00 | 0.00 | 0.00 | 90 | 1012.9 |
| 20260509123131 | 59 | 106 | 0.0 | 0.0 | 0.00 | 0.00 | 0.00 | 90 | 1012.9 |
| 20260509122130 | 59 | 106 | 0.0 | 0.0 | 0.00 | 0.00 | 0.00 | 90 | 1012.9 |
| 20260509121129 | 59 | 106 | 0.0 | 0.0 | 0.00 | 0.00 | 0.00 | 90 | 1012.8 |
| 20260509120128 | 59 | 106 | 0.0 | 0.0 | 0.00 | 0.00 | 0.00 | 90 | 1012.7 |
| 20260509115127 | 59 | 103 | 0.0 | 0.0 | 0.00 | 0.00 | 0.00 | 90 | 1012.8 |
| 20260509114126 | 59 | 103 | 0.0 | 0.0 | 0.00 | 0.00 | 0.00 | 90 | 1012.8 |
| 20260509113125 | 59 | 103 | 0.0 | 0.0 | 0.00 | 0.00 | 0.00 | 90 | 1012.8 |
| 20260509112124 | 59 | 103 | 0.0 | 0.0 | 0.00 | 0.00 | 0.00 | 90 | 1012.8 |
| 20260509111123 | 59 | 103 | 0.0 | 0.0 | 0.00 | 0.00 | 0.00 | 90 | 1012.8 |
| 20260509110122 | 59 | 109 | 0.0 | 0.0 | 0.00 | 0.00 | 0.00 | 90 | 1012.9 |
| 20260509105121 | 59 | 109 | 0.0 | 0.0 | 0.00 | 0.00 | 0.00 | 90 | 1013.0 |
| 20260509104120 | 59 | 109 | 0.0 | 0.0 | 0.00 | 0.00 | 0.00 | 90 | 1012.9 |
| 20260509103119 | 59 | 115 | 0.0 | 0.0 | 0.00 | 0.00 | 0.00 | 90 | 1012.8 |
| 20260509102118 | 59 | 96 | 0.0 | 0.0 | 0.00 | 0.00 | 0.00 | 90 | 1012.9 |
| 20260509101117 | 59 | 96 | 0.0 | 0.0 | 0.00 | 0.00 | 0.00 | 90 | 1013.0 |
| 20260509100116 | 59 | 96 | 0.0 | 0.0 | 0.00 | 0.00 | 0.00 | 90 | 1013.0 |
| 20260509095115 | 59 | 96 | 0.0 | 0.0 | 0.00 | 0.00 | 0.00 | 89 | 1013.0 |
| 20260509094114 | 59 | 107 | 0.0 | 0.0 | 0.00 | 0.00 | 0.00 | 89 | 1013.2 |
| 20260509093113 | 59 | 107 | 0.0 | 0.0 | 0.00 | 0.00 | 0.00 | 89 | 1013.2 |
| 20260509092111 | 59 | 107 | 0.0 | 0.0 | 0.00 | 0.00 | 0.00 | 90 | 1013.2 |
| 20260509091111 | 59 | 107 | 0.0 | 0.0 | 0.00 | 0.00 | 0.00 | 89 | 1013.2 |
| 20260509090110 | 59 | 107 | 0.0 | 0.0 | 0.00 | 0.00 | 0.00 | 90 | 1013.3 |
| 20260509085108 | 59 | 107 | 0.0 | 0.0 | 0.00 | 0.00 | 0.00 | 90 | 1013.3 |
| 20260509084108 | 59 | 111 | 0.0 | 0.0 | 0.00 | 0.00 | 0.00 | 90 | 1013.5 |
| 20260509083106 | 59 | 102 | 0.0 | 0.0 | 0.00 | 0.00 | 0.00 | 90 | 1013.5 |
| 20260509082105 | 59 | 105 | 0.0 | 0.0 | 0.00 | 0.00 | 0.00 | 90 | 1013.5 |
| 20260509081104 | 58 | 98 | 0.0 | 0.9 | 0.00 | 0.00 | 0.00 | 90 | 1013.6 |
| 20260509080104 | 58 | 115 | 0.0 | 0.0 | 0.00 | 0.00 | 0.00 | 90 | 1013.6 |
| 20260509075102 | 58 | 115 | 0.0 | 0.0 | 0.00 | 0.00 | 0.00 | 90 | 1013.7 |
| 20260509074102 | 58 | 115 | 0.0 | 0.0 | 0.00 | 0.00 | 0.00 | 90 | 1013.8 |
| 20260509072059 | 58 | 115 | 0.0 | 0.0 | 0.00 | 0.00 | 0.00 | 89 | 1013.6 |
| 20260509071058 | 58 | 115 | 0.0 | 0.0 | 0.00 | 0.00 | 0.00 | 89 | 1013.8 |